sensor_id;sensor_type;location;lat;lon;timestamp;P1;durP1;ratioP1;P2;durP2;ratioP2
74900;SDS011;63461;51.416;6.758;2023-02-18T00:00:07;19.07;;;10.03;;
74900;SDS011;63461;51.416;6.758;2023-02-18T00:02:34;22.70;;;10.87;;
74900;SDS011;63461;51.416;6.758;2023-02-18T00:05:00;19.20;;;9.63;;
74900;SDS011;63461;51.416;6.758;2023-02-18T00:07:26;19.93;;;11.00;;
74900;SDS011;63461;51.416;6.758;2023-02-18T00:09:52;23.60;;;12.10;;
74900;SDS011;63461;51.416;6.758;2023-02-18T00:12:19;20.30;;;11.70;;
74900;SDS011;63461;51.416;6.758;2023-02-18T00:14:45;21.53;;;10.60;;
74900;SDS011;63461;51.416;6.758;2023-02-18T00:17:11;19.30;;;9.97;;
74900;SDS011;63461;51.416;6.758;2023-02-18T00:19:37;20.83;;;10.27;;
74900;SDS011;63461;51.416;6.758;2023-02-18T00:22:03;15.60;;;9.63;;
74900;SDS011;63461;51.416;6.758;2023-02-18T00:24:29;23.03;;;11.20;;
74900;SDS011;63461;51.416;6.758;2023-02-18T00:26:56;21.80;;;11.57;;
74900;SDS011;63461;51.416;6.758;2023-02-18T00:29:22;21.57;;;11.90;;
74900;SDS011;63461;51.416;6.758;2023-02-18T00:31:48;23.87;;;12.30;;
74900;SDS011;63461;51.416;6.758;2023-02-18T00:34:14;21.83;;;12.10;;
74900;SDS011;63461;51.416;6.758;2023-02-18T00:36:41;23.37;;;12.00;;
74900;SDS011;63461;51.416;6.758;2023-02-18T00:39:08;23.30;;;12.47;;
74900;SDS011;63461;51.416;6.758;2023-02-18T00:41:35;22.90;;;12.43;;
74900;SDS011;63461;51.416;6.758;2023-02-18T00:44:01;23.10;;;12.47;;
74900;SDS011;63461;51.416;6.758;2023-02-18T00:46:28;21.90;;;12.00;;
74900;SDS011;63461;51.416;6.758;2023-02-18T00:48:54;17.93;;;8.57;;
74900;SDS011;63461;51.416;6.758;2023-02-18T00:51:20;20.53;;;11.60;;
74900;SDS011;63461;51.416;6.758;2023-02-18T00:53:47;20.67;;;11.73;;
74900;SDS011;63461;51.416;6.758;2023-02-18T00:56:14;27.53;;;13.20;;
74900;SDS011;63461;51.416;6.758;2023-02-18T00:58:41;22.80;;;11.70;;
74900;SDS011;63461;51.416;6.758;2023-02-18T01:01:07;24.70;;;10.03;;
74900;SDS011;63461;51.416;6.758;2023-02-18T01:03:34;23.20;;;12.47;;
74900;SDS011;63461;51.416;6.758;2023-02-18T01:06:01;23.93;;;11.87;;
74900;SDS011;63461;51.416;6.758;2023-02-18T01:08:27;25.10;;;12.80;;
74900;SDS011;63461;51.416;6.758;2023-02-18T01:10:54;23.87;;;12.30;;
74900;SDS011;63461;51.416;6.758;2023-02-18T01:13:22;24.37;;;13.00;;
74900;SDS011;63461;51.416;6.758;2023-02-18T01:15:48;25.10;;;12.43;;
74900;SDS011;63461;51.416;6.758;2023-02-18T01:18:15;24.43;;;12.60;;
74900;SDS011;63461;51.416;6.758;2023-02-18T01:20:42;24.30;;;13.00;;
74900;SDS011;63461;51.416;6.758;2023-02-18T01:23:08;24.43;;;10.90;;
74900;SDS011;63461;51.416;6.758;2023-02-18T01:25:36;22.80;;;11.97;;
74900;SDS011;63461;51.416;6.758;2023-02-18T01:28:02;21.67;;;10.67;;
74900;SDS011;63461;51.416;6.758;2023-02-18T01:30:29;19.03;;;9.97;;
74900;SDS011;63461;51.416;6.758;2023-02-18T01:32:55;25.17;;;10.80;;
74900;SDS011;63461;51.416;6.758;2023-02-18T01:35:22;22.30;;;11.63;;
74900;SDS011;63461;51.416;6.758;2023-02-18T01:37:48;21.93;;;11.67;;
74900;SDS011;63461;51.416;6.758;2023-02-18T01:40:16;21.43;;;10.97;;
74900;SDS011;63461;51.416;6.758;2023-02-18T01:42:43;20.03;;;10.70;;
74900;SDS011;63461;51.416;6.758;2023-02-18T01:47:54;21.03;;;10.73;;
74900;SDS011;63461;51.416;6.758;2023-02-18T01:50:20;21.23;;;10.03;;
74900;SDS011;63461;51.416;6.758;2023-02-18T01:52:47;20.67;;;10.37;;
74900;SDS011;63461;51.416;6.758;2023-02-18T01:55:13;20.60;;;10.37;;
74900;SDS011;63461;51.416;6.758;2023-02-18T01:57:41;18.13;;;9.10;;
74900;SDS011;63461;51.416;6.758;2023-02-18T02:00:12;18.10;;;9.80;;
74900;SDS011;63461;51.416;6.758;2023-02-18T02:02:45;19.50;;;9.63;;
74900;SDS011;63461;51.416;6.758;2023-02-18T02:05:11;16.57;;;9.40;;
74900;SDS011;63461;51.416;6.758;2023-02-18T02:07:39;17.40;;;8.50;;
74900;SDS011;63461;51.416;6.758;2023-02-18T02:10:06;17.10;;;8.70;;
74900;SDS011;63461;51.416;6.758;2023-02-18T02:23:12;17.73;;;9.40;;
74900;SDS011;63461;51.416;6.758;2023-02-18T02:36:22;17.47;;;8.43;;
74900;SDS011;63461;51.416;6.758;2023-02-18T02:46:29;17.10;;;8.90;;
74900;SDS011;63461;51.416;6.758;2023-02-18T02:49:02;14.30;;;8.03;;
74900;SDS011;63461;51.416;6.758;2023-02-18T02:51:34;16.17;;;8.77;;
74900;SDS011;63461;51.416;6.758;2023-02-18T02:54:36;14.30;;;7.77;;
74900;SDS011;63461;51.416;6.758;2023-02-18T02:57:36;18.50;;;9.07;;
74900;SDS011;63461;51.416;6.758;2023-02-18T03:00:03;15.23;;;9.37;;
74900;SDS011;63461;51.416;6.758;2023-02-18T03:13:44;15.83;;;7.97;;
74900;SDS011;63461;51.416;6.758;2023-02-18T03:16:41;15.97;;;7.23;;
74900;SDS011;63461;51.416;6.758;2023-02-18T03:19:32;17.80;;;8.80;;
74900;SDS011;63461;51.416;6.758;2023-02-18T03:22:11;17.30;;;9.03;;
74900;SDS011;63461;51.416;6.758;2023-02-18T03:24:40;18.63;;;10.00;;
74900;SDS011;63461;51.416;6.758;2023-02-18T03:27:09;22.30;;;10.27;;
74900;SDS011;63461;51.416;6.758;2023-02-18T03:29:37;20.83;;;10.33;;
74900;SDS011;63461;51.416;6.758;2023-02-18T03:32:05;18.63;;;10.40;;
74900;SDS011;63461;51.416;6.758;2023-02-18T03:34:37;21.37;;;10.37;;
74900;SDS011;63461;51.416;6.758;2023-02-18T03:37:05;21.50;;;10.13;;
74900;SDS011;63461;51.416;6.758;2023-02-18T03:39:33;18.80;;;8.87;;
74900;SDS011;63461;51.416;6.758;2023-02-18T03:42:02;21.97;;;10.73;;
74900;SDS011;63461;51.416;6.758;2023-02-18T03:44:29;19.63;;;10.03;;
74900;SDS011;63461;51.416;6.758;2023-02-18T03:46:55;23.93;;;11.40;;
74900;SDS011;63461;51.416;6.758;2023-02-18T03:49:21;24.40;;;12.00;;
74900;SDS011;63461;51.416;6.758;2023-02-18T03:51:48;21.90;;;11.20;;
74900;SDS011;63461;51.416;6.758;2023-02-18T03:54:14;24.63;;;11.33;;
74900;SDS011;63461;51.416;6.758;2023-02-18T03:56:41;20.47;;;10.37;;
74900;SDS011;63461;51.416;6.758;2023-02-18T03:59:07;22.47;;;9.87;;
74900;SDS011;63461;51.416;6.758;2023-02-18T04:01:34;20.93;;;9.60;;
74900;SDS011;63461;51.416;6.758;2023-02-18T04:04:00;20.83;;;9.40;;
74900;SDS011;63461;51.416;6.758;2023-02-18T04:06:27;19.57;;;9.20;;
74900;SDS011;63461;51.416;6.758;2023-02-18T04:08:53;20.40;;;9.40;;
74900;SDS011;63461;51.416;6.758;2023-02-18T04:11:20;21.90;;;9.40;;
74900;SDS011;63461;51.416;6.758;2023-02-18T04:13:46;20.57;;;9.47;;
74900;SDS011;63461;51.416;6.758;2023-02-18T04:16:12;18.73;;;8.90;;
74900;SDS011;63461;51.416;6.758;2023-02-18T04:18:39;16.80;;;8.27;;
74900;SDS011;63461;51.416;6.758;2023-02-18T04:21:05;18.77;;;7.87;;
74900;SDS011;63461;51.416;6.758;2023-02-18T04:23:31;18.73;;;8.27;;
74900;SDS011;63461;51.416;6.758;2023-02-18T04:25:57;16.33;;;7.40;;
74900;SDS011;63461;51.416;6.758;2023-02-18T04:28:24;15.27;;;7.57;;
74900;SDS011;63461;51.416;6.758;2023-02-18T04:30:50;17.27;;;7.03;;
74900;SDS011;63461;51.416;6.758;2023-02-18T04:33:16;14.10;;;6.53;;
74900;SDS011;63461;51.416;6.758;2023-02-18T04:35:42;11.30;;;5.27;;
74900;SDS011;63461;51.416;6.758;2023-02-18T04:38:09;15.47;;;6.03;;
74900;SDS011;63461;51.416;6.758;2023-02-18T04:40:36;15.50;;;5.93;;
74900;SDS011;63461;51.416;6.758;2023-02-18T04:43:02;14.53;;;6.13;;
74900;SDS011;63461;51.416;6.758;2023-02-18T04:45:28;11.70;;;4.57;;
74900;SDS011;63461;51.416;6.758;2023-02-18T04:47:55;14.33;;;5.17;;
74900;SDS011;63461;51.416;6.758;2023-02-18T04:50:21;12.70;;;5.23;;
74900;SDS011;63461;51.416;6.758;2023-02-18T04:52:47;9.67;;;3.90;;
74900;SDS011;63461;51.416;6.758;2023-02-18T04:55:14;7.80;;;3.90;;
74900;SDS011;63461;51.416;6.758;2023-02-18T04:57:40;9.50;;;4.17;;
74900;SDS011;63461;51.416;6.758;2023-02-18T05:00:07;9.20;;;3.73;;
74900;SDS011;63461;51.416;6.758;2023-02-18T05:02:34;7.13;;;3.30;;
74900;SDS011;63461;51.416;6.758;2023-02-18T05:05:00;6.20;;;3.03;;
74900;SDS011;63461;51.416;6.758;2023-02-18T05:07:26;4.23;;;2.20;;
74900;SDS011;63461;51.416;6.758;2023-02-18T05:09:52;4.40;;;2.17;;
74900;SDS011;63461;51.416;6.758;2023-02-18T05:12:18;5.10;;;2.50;;
74900;SDS011;63461;51.416;6.758;2023-02-18T05:14:45;4.73;;;2.10;;
74900;SDS011;63461;51.416;6.758;2023-02-18T05:17:11;3.83;;;2.00;;
74900;SDS011;63461;51.416;6.758;2023-02-18T05:19:37;3.33;;;1.80;;
74900;SDS011;63461;51.416;6.758;2023-02-18T05:22:03;3.03;;;1.83;;
74900;SDS011;63461;51.416;6.758;2023-02-18T05:24:29;2.67;;;1.63;;
74900;SDS011;63461;51.416;6.758;2023-02-18T05:26:56;2.90;;;1.60;;
74900;SDS011;63461;51.416;6.758;2023-02-18T05:29:22;4.63;;;2.27;;
74900;SDS011;63461;51.416;6.758;2023-02-18T05:31:48;3.50;;;2.07;;
74900;SDS011;63461;51.416;6.758;2023-02-18T05:34:14;4.00;;;2.03;;
74900;SDS011;63461;51.416;6.758;2023-02-18T05:36:41;2.40;;;1.30;;
74900;SDS011;63461;51.416;6.758;2023-02-18T05:39:07;2.97;;;1.90;;
74900;SDS011;63461;51.416;6.758;2023-02-18T05:41:33;4.50;;;2.00;;
74900;SDS011;63461;51.416;6.758;2023-02-18T05:43:59;2.93;;;1.90;;
74900;SDS011;63461;51.416;6.758;2023-02-18T05:46:44;3.03;;;2.17;;
74900;SDS011;63461;51.416;6.758;2023-02-18T05:49:10;3.27;;;2.10;;
74900;SDS011;63461;51.416;6.758;2023-02-18T05:51:36;2.50;;;1.80;;
74900;SDS011;63461;51.416;6.758;2023-02-18T05:54:03;4.43;;;2.00;;
74900;SDS011;63461;51.416;6.758;2023-02-18T05:56:29;2.60;;;1.80;;
74900;SDS011;63461;51.416;6.758;2023-02-18T05:58:55;2.73;;;1.97;;
74900;SDS011;63461;51.416;6.758;2023-02-18T06:01:21;2.93;;;1.83;;
74900;SDS011;63461;51.416;6.758;2023-02-18T06:03:48;4.20;;;2.47;;
74900;SDS011;63461;51.416;6.758;2023-02-18T06:06:14;3.13;;;1.90;;
74900;SDS011;63461;51.416;6.758;2023-02-18T06:08:40;4.07;;;2.50;;
74900;SDS011;63461;51.416;6.758;2023-02-18T06:11:06;3.27;;;2.20;;
74900;SDS011;63461;51.416;6.758;2023-02-18T06:13:32;5.40;;;2.53;;
74900;SDS011;63461;51.416;6.758;2023-02-18T06:15:58;5.43;;;2.20;;
74900;SDS011;63461;51.416;6.758;2023-02-18T06:18:25;4.27;;;2.30;;
74900;SDS011;63461;51.416;6.758;2023-02-18T06:20:51;3.43;;;2.17;;
74900;SDS011;63461;51.416;6.758;2023-02-18T06:23:17;4.03;;;2.50;;
74900;SDS011;63461;51.416;6.758;2023-02-18T06:25:43;4.00;;;2.60;;
74900;SDS011;63461;51.416;6.758;2023-02-18T06:28:10;2.27;;;1.67;;
74900;SDS011;63461;51.416;6.758;2023-02-18T06:30:36;4.40;;;2.53;;
74900;SDS011;63461;51.416;6.758;2023-02-18T06:33:02;4.87;;;2.87;;
74900;SDS011;63461;51.416;6.758;2023-02-18T06:35:28;3.73;;;2.33;;
74900;SDS011;63461;51.416;6.758;2023-02-18T06:37:55;4.30;;;2.80;;
74900;SDS011;63461;51.416;6.758;2023-02-18T06:40:21;5.93;;;3.30;;
74900;SDS011;63461;51.416;6.758;2023-02-18T06:42:47;4.47;;;2.57;;
74900;SDS011;63461;51.416;6.758;2023-02-18T06:45:13;5.77;;;2.93;;
74900;SDS011;63461;51.416;6.758;2023-02-18T06:47:39;7.57;;;3.33;;
74900;SDS011;63461;51.416;6.758;2023-02-18T06:50:06;3.17;;;1.70;;
74900;SDS011;63461;51.416;6.758;2023-02-18T06:52:32;5.93;;;3.13;;
74900;SDS011;63461;51.416;6.758;2023-02-18T06:54:59;6.53;;;3.30;;
74900;SDS011;63461;51.416;6.758;2023-02-18T06:57:25;3.93;;;2.07;;
74900;SDS011;63461;51.416;6.758;2023-02-18T06:59:51;4.20;;;1.87;;
74900;SDS011;63461;51.416;6.758;2023-02-18T07:02:17;5.00;;;2.40;;
74900;SDS011;63461;51.416;6.758;2023-02-18T07:04:44;4.93;;;2.70;;
74900;SDS011;63461;51.416;6.758;2023-02-18T07:07:10;2.50;;;1.27;;
74900;SDS011;63461;51.416;6.758;2023-02-18T07:09:36;3.63;;;2.10;;
74900;SDS011;63461;51.416;6.758;2023-02-18T07:12:03;7.77;;;2.43;;
74900;SDS011;63461;51.416;6.758;2023-02-18T07:14:29;2.30;;;0.87;;
74900;SDS011;63461;51.416;6.758;2023-02-18T07:16:55;3.87;;;2.20;;
74900;SDS011;63461;51.416;6.758;2023-02-18T07:19:22;5.33;;;2.00;;
74900;SDS011;63461;51.416;6.758;2023-02-18T07:21:48;2.67;;;1.70;;
74900;SDS011;63461;51.416;6.758;2023-02-18T07:24:15;4.17;;;2.00;;
74900;SDS011;63461;51.416;6.758;2023-02-18T07:26:41;2.83;;;1.80;;
74900;SDS011;63461;51.416;6.758;2023-02-18T07:29:08;3.03;;;1.37;;
74900;SDS011;63461;51.416;6.758;2023-02-18T07:31:34;2.93;;;1.33;;
74900;SDS011;63461;51.416;6.758;2023-02-18T07:34:00;2.10;;;1.23;;
74900;SDS011;63461;51.416;6.758;2023-02-18T07:36:26;3.00;;;1.60;;
74900;SDS011;63461;51.416;6.758;2023-02-18T07:38:52;3.93;;;1.70;;
74900;SDS011;63461;51.416;6.758;2023-02-18T07:41:20;1.93;;;1.23;;
74900;SDS011;63461;51.416;6.758;2023-02-18T07:43:46;3.73;;;1.70;;
74900;SDS011;63461;51.416;6.758;2023-02-18T07:46:13;1.87;;;1.00;;
74900;SDS011;63461;51.416;6.758;2023-02-18T07:48:39;1.53;;;1.00;;
74900;SDS011;63461;51.416;6.758;2023-02-18T07:51:06;3.30;;;0.90;;
74900;SDS011;63461;51.416;6.758;2023-02-18T07:53:32;3.00;;;1.40;;
74900;SDS011;63461;51.416;6.758;2023-02-18T07:55:59;2.80;;;1.10;;
74900;SDS011;63461;51.416;6.758;2023-02-18T07:58:26;3.23;;;1.13;;
74900;SDS011;63461;51.416;6.758;2023-02-18T08:00:53;2.23;;;1.40;;
74900;SDS011;63461;51.416;6.758;2023-02-18T08:03:20;3.93;;;1.40;;
74900;SDS011;63461;51.416;6.758;2023-02-18T08:05:47;2.10;;;1.40;;
74900;SDS011;63461;51.416;6.758;2023-02-18T08:08:15;1.90;;;1.17;;
74900;SDS011;63461;51.416;6.758;2023-02-18T08:10:41;1.30;;;0.90;;
74900;SDS011;63461;51.416;6.758;2023-02-18T08:13:08;1.77;;;1.30;;
74900;SDS011;63461;51.416;6.758;2023-02-18T08:15:35;3.70;;;1.03;;
74900;SDS011;63461;51.416;6.758;2023-02-18T08:18:01;2.33;;;1.20;;
74900;SDS011;63461;51.416;6.758;2023-02-18T08:20:27;2.93;;;1.03;;
74900;SDS011;63461;51.416;6.758;2023-02-18T08:22:54;1.17;;;0.97;;
74900;SDS011;63461;51.416;6.758;2023-02-18T08:25:20;5.57;;;1.53;;
74900;SDS011;63461;51.416;6.758;2023-02-18T08:27:46;4.43;;;1.40;;
74900;SDS011;63461;51.416;6.758;2023-02-18T08:30:12;2.40;;;1.50;;
74900;SDS011;63461;51.416;6.758;2023-02-18T08:32:39;2.90;;;1.20;;
74900;SDS011;63461;51.416;6.758;2023-02-18T08:35:05;3.67;;;1.70;;
74900;SDS011;63461;51.416;6.758;2023-02-18T08:37:32;5.20;;;1.90;;
74900;SDS011;63461;51.416;6.758;2023-02-18T08:39:58;1.63;;;1.00;;
74900;SDS011;63461;51.416;6.758;2023-02-18T08:42:25;3.53;;;1.80;;
74900;SDS011;63461;51.416;6.758;2023-02-18T08:44:51;5.20;;;1.70;;
74900;SDS011;63461;51.416;6.758;2023-02-18T08:47:17;8.07;;;1.60;;
74900;SDS011;63461;51.416;6.758;2023-02-18T08:49:43;10.77;;;3.03;;
74900;SDS011;63461;51.416;6.758;2023-02-18T08:52:09;7.50;;;2.40;;
74900;SDS011;63461;51.416;6.758;2023-02-18T08:54:36;5.60;;;2.00;;
74900;SDS011;63461;51.416;6.758;2023-02-18T08:57:02;5.43;;;2.20;;
74900;SDS011;63461;51.416;6.758;2023-02-18T08:59:28;8.37;;;2.30;;
74900;SDS011;63461;51.416;6.758;2023-02-18T09:01:54;3.00;;;1.53;;
74900;SDS011;63461;51.416;6.758;2023-02-18T09:04:21;12.83;;;2.50;;
74900;SDS011;63461;51.416;6.758;2023-02-18T09:06:48;8.77;;;2.23;;
74900;SDS011;63461;51.416;6.758;2023-02-18T09:09:15;5.83;;;1.70;;
74900;SDS011;63461;51.416;6.758;2023-02-18T09:11:41;5.47;;;1.87;;
74900;SDS011;63461;51.416;6.758;2023-02-18T09:14:08;6.17;;;2.10;;
74900;SDS011;63461;51.416;6.758;2023-02-18T09:16:34;8.27;;;1.87;;
74900;SDS011;63461;51.416;6.758;2023-02-18T09:19:02;8.60;;;2.20;;
74900;SDS011;63461;51.416;6.758;2023-02-18T09:21:29;9.93;;;2.30;;
74900;SDS011;63461;51.416;6.758;2023-02-18T09:23:55;9.00;;;2.50;;
74900;SDS011;63461;51.416;6.758;2023-02-18T09:26:22;6.53;;;1.73;;
74900;SDS011;63461;51.416;6.758;2023-02-18T09:28:51;8.20;;;2.43;;
74900;SDS011;63461;51.416;6.758;2023-02-18T09:31:18;8.77;;;2.40;;
74900;SDS011;63461;51.416;6.758;2023-02-18T09:33:54;10.37;;;2.70;;
74900;SDS011;63461;51.416;6.758;2023-02-18T09:36:20;4.70;;;1.87;;
74900;SDS011;63461;51.416;6.758;2023-02-18T09:38:47;10.33;;;2.50;;
74900;SDS011;63461;51.416;6.758;2023-02-18T09:41:30;11.93;;;2.60;;
74900;SDS011;63461;51.416;6.758;2023-02-18T09:46:40;8.87;;;2.00;;
74900;SDS011;63461;51.416;6.758;2023-02-18T09:49:26;7.17;;;2.17;;
74900;SDS011;63461;51.416;6.758;2023-02-18T09:51:54;14.10;;;2.67;;
74900;SDS011;63461;51.416;6.758;2023-02-18T09:54:21;12.30;;;2.53;;
74900;SDS011;63461;51.416;6.758;2023-02-18T09:56:47;9.07;;;2.27;;
74900;SDS011;63461;51.416;6.758;2023-02-18T09:59:15;9.43;;;2.40;;
74900;SDS011;63461;51.416;6.758;2023-02-18T10:01:42;15.37;;;2.63;;
74900;SDS011;63461;51.416;6.758;2023-02-18T10:04:18;6.97;;;1.77;;
74900;SDS011;63461;51.416;6.758;2023-02-18T10:06:48;11.33;;;2.20;;
74900;SDS011;63461;51.416;6.758;2023-02-18T10:09:34;10.13;;;2.20;;
74900;SDS011;63461;51.416;6.758;2023-02-18T10:14:36;10.37;;;2.00;;
74900;SDS011;63461;51.416;6.758;2023-02-18T10:17:03;8.27;;;2.93;;
74900;SDS011;63461;51.416;6.758;2023-02-18T10:19:33;10.87;;;2.30;;
74900;SDS011;63461;51.416;6.758;2023-02-18T10:22:01;9.83;;;1.90;;
74900;SDS011;63461;51.416;6.758;2023-02-18T10:24:39;8.90;;;2.33;;
74900;SDS011;63461;51.416;6.758;2023-02-18T10:27:07;8.50;;;1.57;;
74900;SDS011;63461;51.416;6.758;2023-02-18T10:29:34;13.37;;;2.20;;
74900;SDS011;63461;51.416;6.758;2023-02-18T10:34:40;9.63;;;2.10;;
74900;SDS011;63461;51.416;6.758;2023-02-18T10:37:14;9.67;;;1.93;;
74900;SDS011;63461;51.416;6.758;2023-02-18T10:39:53;10.27;;;2.10;;
74900;SDS011;63461;51.416;6.758;2023-02-18T10:47:38;5.77;;;1.50;;
74900;SDS011;63461;51.416;6.758;2023-02-18T10:52:50;13.00;;;2.80;;
74900;SDS011;63461;51.416;6.758;2023-02-18T10:55:17;11.33;;;2.47;;
74900;SDS011;63461;51.416;6.758;2023-02-18T10:57:47;10.57;;;2.27;;
74900;SDS011;63461;51.416;6.758;2023-02-18T11:02:41;13.20;;;2.50;;
74900;SDS011;63461;51.416;6.758;2023-02-18T11:05:23;13.33;;;2.90;;
74900;SDS011;63461;51.416;6.758;2023-02-18T11:07:52;10.10;;;2.83;;
74900;SDS011;63461;51.416;6.758;2023-02-18T11:10:28;13.43;;;2.83;;
74900;SDS011;63461;51.416;6.758;2023-02-18T11:12:57;9.83;;;2.33;;
74900;SDS011;63461;51.416;6.758;2023-02-18T11:15:25;4.67;;;2.27;;
74900;SDS011;63461;51.416;6.758;2023-02-18T11:17:53;9.17;;;2.30;;
74900;SDS011;63461;51.416;6.758;2023-02-18T11:28:26;5.87;;;1.90;;
74900;SDS011;63461;51.416;6.758;2023-02-18T11:30:59;9.53;;;3.10;;
74900;SDS011;63461;51.416;6.758;2023-02-18T11:38:51;9.83;;;2.50;;
74900;SDS011;63461;51.416;6.758;2023-02-18T11:41:28;6.87;;;2.60;;
74900;SDS011;63461;51.416;6.758;2023-02-18T11:43:58;11.97;;;3.10;;
74900;SDS011;63461;51.416;6.758;2023-02-18T11:46:25;10.20;;;2.30;;
74900;SDS011;63461;51.416;6.758;2023-02-18T11:48:52;12.27;;;3.17;;
74900;SDS011;63461;51.416;6.758;2023-02-18T11:53:53;10.70;;;2.57;;
74900;SDS011;63461;51.416;6.758;2023-02-18T11:56:26;12.50;;;2.47;;
74900;SDS011;63461;51.416;6.758;2023-02-18T11:58:54;10.17;;;2.70;;
74900;SDS011;63461;51.416;6.758;2023-02-18T12:04:17;6.50;;;2.27;;
74900;SDS011;63461;51.416;6.758;2023-02-18T12:09:48;8.27;;;3.13;;
74900;SDS011;63461;51.416;6.758;2023-02-18T12:12:29;9.77;;;2.93;;
74900;SDS011;63461;51.416;6.758;2023-02-18T12:14:58;10.83;;;2.77;;
74900;SDS011;63461;51.416;6.758;2023-02-18T12:17:58;9.43;;;3.20;;
74900;SDS011;63461;51.416;6.758;2023-02-18T12:23:19;6.27;;;2.80;;
74900;SDS011;63461;51.416;6.758;2023-02-18T13:04:13;9.90;;;3.00;;
74900;SDS011;63461;51.416;6.758;2023-02-18T13:07:06;5.53;;;2.73;;
74900;SDS011;63461;51.416;6.758;2023-02-18T13:18:17;8.30;;;3.70;;
74900;SDS011;63461;51.416;6.758;2023-02-18T13:21:12;7.07;;;3.70;;
74900;SDS011;63461;51.416;6.758;2023-02-18T13:23:44;9.07;;;4.40;;
74900;SDS011;63461;51.416;6.758;2023-02-18T13:26:17;6.20;;;4.30;;
74900;SDS011;63461;51.416;6.758;2023-02-18T13:28:57;11.50;;;4.60;;
74900;SDS011;63461;51.416;6.758;2023-02-18T13:31:55;14.17;;;4.57;;
74900;SDS011;63461;51.416;6.758;2023-02-18T13:34:35;8.53;;;4.30;;
74900;SDS011;63461;51.416;6.758;2023-02-18T13:37:47;14.40;;;5.80;;
74900;SDS011;63461;51.416;6.758;2023-02-18T13:40:24;13.20;;;5.20;;
74900;SDS011;63461;51.416;6.758;2023-02-18T13:42:54;11.10;;;5.03;;
74900;SDS011;63461;51.416;6.758;2023-02-18T13:45:40;12.70;;;5.30;;
74900;SDS011;63461;51.416;6.758;2023-02-18T13:48:20;12.10;;;5.37;;
74900;SDS011;63461;51.416;6.758;2023-02-18T13:51:01;8.97;;;4.43;;
74900;SDS011;63461;51.416;6.758;2023-02-18T13:53:34;15.97;;;6.50;;
74900;SDS011;63461;51.416;6.758;2023-02-18T13:56:03;14.80;;;5.77;;
74900;SDS011;63461;51.416;6.758;2023-02-18T14:01:18;17.77;;;6.60;;
74900;SDS011;63461;51.416;6.758;2023-02-18T14:03:52;15.27;;;6.27;;
74900;SDS011;63461;51.416;6.758;2023-02-18T14:06:28;16.07;;;6.93;;
74900;SDS011;63461;51.416;6.758;2023-02-18T14:11:52;17.53;;;7.53;;
74900;SDS011;63461;51.416;6.758;2023-02-18T14:17:11;16.53;;;7.17;;
74900;SDS011;63461;51.416;6.758;2023-02-18T14:19:37;14.30;;;7.33;;
74900;SDS011;63461;51.416;6.758;2023-02-18T14:25:13;20.60;;;7.30;;
74900;SDS011;63461;51.416;6.758;2023-02-18T14:27:41;12.93;;;6.77;;
74900;SDS011;63461;51.416;6.758;2023-02-18T14:30:15;19.83;;;7.17;;
74900;SDS011;63461;51.416;6.758;2023-02-18T14:33:00;16.73;;;7.00;;
74900;SDS011;63461;51.416;6.758;2023-02-18T14:35:29;13.83;;;6.47;;
74900;SDS011;63461;51.416;6.758;2023-02-18T14:38:06;14.80;;;7.43;;
74900;SDS011;63461;51.416;6.758;2023-02-18T14:51:53;18.03;;;8.20;;
74900;SDS011;63461;51.416;6.758;2023-02-18T14:54:21;18.73;;;8.23;;
74900;SDS011;63461;51.416;6.758;2023-02-18T14:56:54;21.63;;;7.70;;
74900;SDS011;63461;51.416;6.758;2023-02-18T14:59:20;15.40;;;6.83;;
74900;SDS011;63461;51.416;6.758;2023-02-18T15:01:52;19.13;;;8.87;;
74900;SDS011;63461;51.416;6.758;2023-02-18T15:04:19;25.73;;;8.50;;
74900;SDS011;63461;51.416;6.758;2023-02-18T15:06:45;18.80;;;7.23;;
74900;SDS011;63461;51.416;6.758;2023-02-18T15:09:21;21.33;;;8.27;;
74900;SDS011;63461;51.416;6.758;2023-02-18T15:11:48;21.50;;;8.00;;
74900;SDS011;63461;51.416;6.758;2023-02-18T15:14:39;19.40;;;7.57;;
74900;SDS011;63461;51.416;6.758;2023-02-18T15:17:11;14.97;;;7.43;;
74900;SDS011;63461;51.416;6.758;2023-02-18T15:19:41;16.07;;;7.30;;
74900;SDS011;63461;51.416;6.758;2023-02-18T15:22:14;18.27;;;7.83;;
74900;SDS011;63461;51.416;6.758;2023-02-18T15:24:43;15.93;;;6.87;;
74900;SDS011;63461;51.416;6.758;2023-02-18T15:27:10;18.87;;;8.17;;
74900;SDS011;63461;51.416;6.758;2023-02-18T15:29:39;19.53;;;7.37;;
74900;SDS011;63461;51.416;6.758;2023-02-18T15:34:41;19.90;;;8.60;;
74900;SDS011;63461;51.416;6.758;2023-02-18T15:37:10;18.50;;;7.63;;
74900;SDS011;63461;51.416;6.758;2023-02-18T15:39:37;17.03;;;7.90;;
74900;SDS011;63461;51.416;6.758;2023-02-18T15:44:57;16.57;;;7.93;;
74900;SDS011;63461;51.416;6.758;2023-02-18T15:47:41;16.83;;;7.87;;
74900;SDS011;63461;51.416;6.758;2023-02-18T15:50:19;16.13;;;6.37;;
74900;SDS011;63461;51.416;6.758;2023-02-18T15:52:47;16.30;;;7.80;;
74900;SDS011;63461;51.416;6.758;2023-02-18T15:57:52;17.23;;;9.30;;
74900;SDS011;63461;51.416;6.758;2023-02-18T16:00:29;18.43;;;8.13;;
74900;SDS011;63461;51.416;6.758;2023-02-18T16:03:04;20.67;;;8.53;;
74900;SDS011;63461;51.416;6.758;2023-02-18T16:05:35;22.23;;;8.30;;
74900;SDS011;63461;51.416;6.758;2023-02-18T16:08:09;17.93;;;8.67;;
74900;SDS011;63461;51.416;6.758;2023-02-18T16:10:45;16.77;;;8.93;;
74900;SDS011;63461;51.416;6.758;2023-02-18T16:13:14;20.83;;;8.73;;
74900;SDS011;63461;51.416;6.758;2023-02-18T16:15:43;19.23;;;8.33;;
74900;SDS011;63461;51.416;6.758;2023-02-18T16:18:18;16.90;;;7.00;;
74900;SDS011;63461;51.416;6.758;2023-02-18T16:21:03;15.37;;;7.17;;
74900;SDS011;63461;51.416;6.758;2023-02-18T16:23:54;15.97;;;7.60;;
74900;SDS011;63461;51.416;6.758;2023-02-18T16:26:38;18.73;;;7.63;;
74900;SDS011;63461;51.416;6.758;2023-02-18T16:29:11;20.47;;;7.50;;
74900;SDS011;63461;51.416;6.758;2023-02-18T16:31:37;19.10;;;7.87;;
74900;SDS011;63461;51.416;6.758;2023-02-18T16:34:03;14.10;;;7.10;;
74900;SDS011;63461;51.416;6.758;2023-02-18T16:36:29;11.87;;;6.83;;
74900;SDS011;63461;51.416;6.758;2023-02-18T16:38:55;19.37;;;7.17;;
74900;SDS011;63461;51.416;6.758;2023-02-18T16:41:23;15.27;;;6.47;;
74900;SDS011;63461;51.416;6.758;2023-02-18T16:43:49;14.50;;;7.07;;
74900;SDS011;63461;51.416;6.758;2023-02-18T16:46:18;18.73;;;7.83;;
74900;SDS011;63461;51.416;6.758;2023-02-18T16:48:51;19.30;;;7.70;;
74900;SDS011;63461;51.416;6.758;2023-02-18T16:53:45;18.70;;;7.63;;
74900;SDS011;63461;51.416;6.758;2023-02-18T16:56:12;18.47;;;7.17;;
74900;SDS011;63461;51.416;6.758;2023-02-18T16:58:40;18.30;;;8.13;;
74900;SDS011;63461;51.416;6.758;2023-02-18T17:01:07;19.53;;;7.83;;
74900;SDS011;63461;51.416;6.758;2023-02-18T17:03:42;19.07;;;7.93;;
74900;SDS011;63461;51.416;6.758;2023-02-18T17:06:08;20.70;;;7.97;;
74900;SDS011;63461;51.416;6.758;2023-02-18T17:08:33;18.73;;;7.60;;
74900;SDS011;63461;51.416;6.758;2023-02-18T17:11:00;18.20;;;7.30;;
74900;SDS011;63461;51.416;6.758;2023-02-18T17:13:27;16.53;;;6.47;;
74900;SDS011;63461;51.416;6.758;2023-02-18T17:15:54;20.30;;;7.93;;
74900;SDS011;63461;51.416;6.758;2023-02-18T17:18:21;20.70;;;7.80;;
74900;SDS011;63461;51.416;6.758;2023-02-18T17:20:48;16.00;;;7.83;;
74900;SDS011;63461;51.416;6.758;2023-02-18T17:23:16;15.50;;;7.40;;
74900;SDS011;63461;51.416;6.758;2023-02-18T17:25:45;16.87;;;8.20;;
74900;SDS011;63461;51.416;6.758;2023-02-18T17:28:12;24.77;;;8.43;;
74900;SDS011;63461;51.416;6.758;2023-02-18T17:30:43;23.50;;;10.00;;
74900;SDS011;63461;51.416;6.758;2023-02-18T17:33:12;19.23;;;7.90;;
74900;SDS011;63461;51.416;6.758;2023-02-18T17:35:40;17.53;;;7.00;;